Deep Water, West Virginia
Current Conditions -  °F | °C
As of 9:51 AM on Friday 19 Dec 2014 (Local Time) from KBKW Reporting Station
Overcast Overcast  
Wind Chill: 18°   Ceiling: 1100
Heat Index: 25°   Visibility: 10mi
Dew Point: 19°   Wind: 6mph
Humidity: 78%   Direction: 310°NW
Pressure: 30.17"   Gusts: NA
Location:  38.12°N, 81.26°W
Report Text: KBKW 191451Z AUTO 31005KT 10SM OVC011 M04/M07 A3017 RMK AO2 SLP253 T10391072 51012
Loading
Personal Weather Stations






























Interactive Weather Map New forecast layout! Learn more

10-Day Weather Forecast

Advertisements
Track Severe Weather on mobile